Time;durP1;ratioP1;P1;durP2;ratioP2;P2;SDS_P1;SDS_P2;PMS_P1;PMS_P2;Temp;Humidity;BMP_temperature;BMP_pressure;BME280_temperature;BME280_humidity;BME280_pressure;Samples;Min_cycle;Max_cycle;Signal;HPM_P1;HPM_P2
2023/10/08 00:01:40;;;;;;;5.38;1.33;;;11.40;99.90;;;;;;4921164;29;20027;-53
2023/10/08 00:04:07;;;;;;;4.28;1.20;;;11.40;99.90;;;;;;4921155;29;20067;-55
2023/10/08 00:06:33;;;;;;;5.78;1.10;;;11.40;99.90;;;;;;4921374;29;20387;-51
2023/10/08 00:09:07;;;;;;;5.07;1.50;;;11.40;99.90;;;;;;4921056;29;20040;-56
2023/10/08 00:11:37;;;;;;;3.40;1.30;;;11.40;99.90;;;;;;4920977;29;20036;-54
2023/10/08 00:14:08;;;;;;;3.90;0.93;;;11.40;99.90;;;;;;4922084;29;20438;-55
2023/10/08 00:16:33;;;;;;;2.80;0.95;;;11.40;99.90;;;;;;4928690;28;20100;-54
2023/10/08 00:19:07;;;;;;;1.92;1.00;;;11.40;99.90;;;;;;4926861;29;20751;-56
2023/10/08 00:21:36;;;;;;;4.32;1.20;;;11.40;99.90;;;;;;4931319;29;20027;-56
2023/10/08 00:24:05;;;;;;;2.88;1.00;;;11.40;99.90;;;;;;4925289;29;20643;-54
2023/10/08 00:26:31;;;;;;;4.30;1.80;;;11.40;99.90;;;;;;4922793;29;20060;-54
2023/10/08 00:28:59;;;;;;;1.92;0.88;;;11.40;99.90;;;;;;4918426;29;20032;-56
2023/10/08 00:31:32;;;;;;;3.03;1.40;;;11.40;99.90;;;;;;4920903;29;20395;-56
2023/10/08 00:33:58;;;;;;;3.92;1.48;;;11.40;99.90;;;;;;4919348;29;20043;-54
2023/10/08 00:36:24;;;;;;;4.13;1.55;;;11.30;99.90;;;;;;4923955;29;20043;-55
2023/10/08 00:38:52;;;;;;;6.13;1.50;;;11.30;99.90;;;;;;4923089;29;20086;-60
2023/10/08 00:41:27;;;;;;;5.35;1.55;;;11.30;99.90;;;;;;4922418;29;20028;-60
2023/10/08 00:43:56;;;;;;;3.03;1.45;;;11.30;99.90;;;;;;4922407;29;20030;-60
2023/10/08 00:46:29;;;;;;;8.13;1.65;;;11.30;99.90;;;;;;4922499;29;20067;-61
2023/10/08 00:48:56;;;;;;;4.03;1.38;;;11.30;99.90;;;;;;4922167;29;20024;-60
2023/10/08 00:53:52;;;;;;;4.53;1.48;;;11.30;99.90;;;;;;4922330;29;20157;-61
2023/10/08 00:56:19;;;;;;;2.83;1.35;;;11.30;99.90;;;;;;4922048;29;20121;-61
2023/10/08 00:58:52;;;;;;;6.90;1.38;;;11.30;99.90;;;;;;4922137;29;20027;-61
2023/10/08 01:01:20;;;;;;;7.00;2.00;;;11.30;99.90;;;;;;4922227;29;20023;-60
2023/10/08 01:03:49;;;;;;;4.13;1.50;;;11.30;99.90;;;;;;4922145;29;20418;-61
2023/10/08 01:06:18;;;;;;;3.40;1.27;;;11.30;99.90;;;;;;4921899;29;20515;-61
2023/10/08 01:08:52;;;;;;;10.05;2.55;;;11.30;99.90;;;;;;4922086;29;20028;-60
2023/10/08 01:11:33;;;;;;;4.53;1.40;;;11.30;99.90;;;;;;4921001;29;20239;-61
2023/10/08 01:13:59;;;;;;;5.75;1.77;;;11.30;99.90;;;;;;4926196;29;20031;-61
2023/10/08 01:16:27;;;;;;;5.20;1.30;;;11.30;99.90;;;;;;4928471;28;20034;-61
2023/10/08 01:18:54;;;;;;;2.97;1.58;;;11.30;99.90;;;;;;4926111;29;20055;-60
2023/10/08 01:21:33;;;;;;;6.80;1.80;;;11.20;99.90;;;;;;4929896;28;20087;-60
2023/10/08 01:24:05;;;;;;;5.07;1.40;;;11.30;99.90;;;;;;4928681;29;20035;-60
2023/10/08 01:26:32;;;;;;;5.05;1.40;;;11.30;99.90;;;;;;4926155;28;20030;-62
2023/10/08 01:29:02;;;;;;;3.05;1.20;;;11.30;99.90;;;;;;4925389;29;20043;-61
2023/10/08 01:31:28;;;;;;;4.97;1.60;;;11.30;99.90;;;;;;4932535;29;20028;-61
2023/10/08 01:33:56;;;;;;;7.35;1.58;;;11.30;99.90;;;;;;4927764;28;20095;-60
2023/10/08 01:36:25;;;;;;;4.55;1.50;;;11.30;99.90;;;;;;4925574;29;20027;-60
2023/10/08 01:38:51;;;;;;;6.45;1.70;;;11.30;99.90;;;;;;4928545;28;20528;-60
2023/10/08 01:41:26;;;;;;;2.58;1.50;;;11.30;99.90;;;;;;4929465;29;20114;-61
2023/10/08 01:43:52;;;;;;;4.18;1.10;;;11.30;99.90;;;;;;4927185;29;20023;-60
2023/10/08 01:46:21;;;;;;;3.53;1.30;;;11.30;99.90;;;;;;4927316;28;20035;-60
2023/10/08 01:48:50;;;;;;;2.92;1.13;;;11.30;99.90;;;;;;4930351;29;20059;-61
2023/10/08 01:51:24;;;;;;;4.40;1.20;;;11.30;99.90;;;;;;4934961;28;20106;-61
2023/10/08 01:53:53;;;;;;;7.82;1.70;;;11.30;99.90;;;;;;4929745;29;20488;-59
2023/10/08 01:56:19;;;;;;;7.43;1.70;;;11.30;99.90;;;;;;4932468;28;20514;-60
2023/10/08 01:58:46;;;;;;;6.20;1.80;;;11.30;99.90;;;;;;4934869;29;20026;-61
2023/10/08 02:01:12;;;;;;;6.03;1.73;;;11.30;99.90;;;;;;4929495;28;20028;-60
2023/10/08 02:03:38;;;;;;;6.45;1.83;;;11.20;99.90;;;;;;4933312;29;20499;-61
2023/10/08 02:06:06;;;;;;;6.85;1.63;;;11.20;99.90;;;;;;4927534;29;20096;-61
2023/10/08 02:08:31;;;;;;;2.88;1.52;;;11.30;99.90;;;;;;4935259;28;20028;-60
2023/10/08 02:10:57;;;;;;;3.85;1.33;;;11.30;99.90;;;;;;4928455;29;20484;-60
2023/10/08 02:13:23;;;;;;;4.25;1.40;;;11.30;99.90;;;;;;4932283;28;20031;-59
2023/10/08 02:15:51;;;;;;;5.13;1.40;;;11.30;99.90;;;;;;4930759;29;20724;-61
2023/10/08 02:18:18;;;;;;;7.10;1.85;;;11.30;99.90;;;;;;4932031;29;20027;-61
2023/10/08 02:20:43;;;;;;;4.88;1.75;;;11.30;99.90;;;;;;4928222;29;20387;-61
2023/10/08 02:23:11;;;;;;;4.93;1.50;;;11.30;99.90;;;;;;4933018;29;20051;-60
2023/10/08 02:25:39;;;;;;;3.45;1.58;;;11.30;99.90;;;;;;4926662;28;20024;-61
2023/10/08 02:28:08;;;;;;;6.50;1.70;;;11.30;99.90;;;;;;4928047;28;20031;-61
2023/10/08 02:30:36;;;;;;;4.13;1.30;;;11.30;99.90;;;;;;4930991;28;20052;-60
2023/10/08 02:33:02;;;;;;;7.20;1.50;;;11.30;99.90;;;;;;4932739;29;20055;-58
2023/10/08 02:35:27;;;;;;;4.05;1.77;;;11.30;99.90;;;;;;4928801;29;20072;-57
2023/10/08 02:37:54;;;;;;;5.10;1.70;;;11.30;99.90;;;;;;4934426;28;20028;-58
2023/10/08 02:40:26;;;;;;;3.15;1.27;;;11.30;99.90;;;;;;4931689;29;20037;-57
2023/10/08 02:43:00;;;;;;;5.35;1.45;;;11.30;99.90;;;;;;4928641;28;20031;-58
2023/10/08 02:45:29;;;;;;;5.68;1.30;;;11.30;99.90;;;;;;4930304;29;20204;-58
2023/10/08 02:47:55;;;;;;;5.88;1.75;;;11.30;99.90;;;;;;4924516;29;20020;-58
2023/10/08 02:50:22;;;;;;;7.07;1.90;;;11.30;99.90;;;;;;4931415;29;20035;-58
2023/10/08 02:52:49;;;;;;;6.85;1.60;;;11.20;99.90;;;;;;4924981;28;20225;-59
2023/10/08 02:55:34;;;;;;;5.88;1.90;;;11.20;99.90;;;;;;4932513;29;20372;-59
2023/10/08 02:58:02;;;;;;;6.90;1.60;;;11.20;99.90;;;;;;4925591;29;20095;-58
2023/10/08 03:00:29;;;;;;;5.40;1.00;;;11.20;99.90;;;;;;4923911;29;20024;-58
2023/10/08 03:03:01;;;;;;;4.43;1.50;;;11.20;99.90;;;;;;4934256;28;20031;-58
2023/10/08 03:05:30;;;;;;;4.43;1.20;;;11.20;99.90;;;;;;4932425;29;20412;-58
2023/10/08 03:07:57;;;;;;;5.82;1.40;;;11.20;99.90;;;;;;4927314;29;20023;-58
2023/10/08 03:10:31;;;;;;;4.43;1.75;;;11.10;99.90;;;;;;4924520;28;20059;-58
2023/10/08 03:13:03;;;;;;;4.20;1.35;;;11.20;99.90;;;;;;4931157;29;20043;-58
2023/10/08 03:15:30;;;;;;;5.35;1.27;;;11.10;99.90;;;;;;4933614;28;20024;-58
2023/10/08 03:18:08;;;;;;;8.05;2.08;;;11.10;99.90;;;;;;4928514;28;20118;-58
2023/10/08 03:20:45;;;;;;;7.82;1.80;;;11.10;99.90;;;;;;4924931;29;20393;-58
2023/10/08 03:23:22;;;;;;;4.72;1.17;;;11.10;99.90;;;;;;4931291;28;20036;-58
2023/10/08 03:25:59;;;;;;;3.22;1.27;;;11.10;99.90;;;;;;4926323;28;20035;-57
2023/10/08 03:28:24;;;;;;;1.90;1.33;;;11.10;99.90;;;;;;4931843;29;20114;-59
2023/10/08 03:30:56;;;;;;;5.60;1.60;;;11.00;99.90;;;;;;4929721;29;20103;-58
2023/10/08 03:33:26;;;;;;;4.07;1.70;;;11.00;99.90;;;;;;4929532;28;20020;-59
2023/10/08 03:35:52;;;;;;;5.28;1.65;;;10.90;99.90;;;;;;4930737;28;20435;-57
2023/10/08 03:38:28;;;;;;;3.28;1.55;;;10.90;99.90;;;;;;4929461;29;20024;-58
2023/10/08 03:41:03;;;;;;;7.47;1.77;;;10.90;99.90;;;;;;4928968;28;20024;-58
2023/10/08 03:43:43;;;;;;;7.88;1.50;;;10.80;99.90;;;;;;4930775;29;20111;-57
2023/10/08 03:46:15;;;;;;;8.05;1.35;;;10.70;99.90;;;;;;4924559;28;20032;-57
2023/10/08 03:48:45;;;;;;;6.95;1.67;;;10.70;99.90;;;;;;4925865;28;20171;-59
2023/10/08 03:51:12;;;;;;;2.75;1.48;;;10.60;99.90;;;;;;4931420;29;20114;-58
2023/10/08 03:53:59;;;;;;;3.80;1.25;;;10.60;99.90;;;;;;4926180;29;20030;-59
2023/10/08 03:56:31;;;;;;;5.03;1.63;;;10.60;99.90;;;;;;4928742;28;20032;-56
2023/10/08 03:59:00;;;;;;;4.60;1.50;;;10.60;99.90;;;;;;4931568;28;20028;-51
2023/10/08 04:01:30;;;;;;;2.67;1.27;;;10.60;99.90;;;;;;4931648;28;20035;-55
2023/10/08 04:03:59;;;;;;;3.33;1.20;;;10.50;99.90;;;;;;4929107;29;20032;-53
2023/10/08 04:11:36;;;;;;;2.83;1.25;;;10.50;99.90;;;;;;4929566;28;20023;-53
2023/10/08 04:14:02;;;;;;;1.65;1.30;;;10.50;99.90;;;;;;4928315;28;20039;-52
2023/10/08 04:16:28;;;;;;;5.53;1.65;;;10.50;99.90;;;;;;4931984;28;20038;-53
2023/10/08 04:19:03;;;;;;;3.22;1.33;;;10.50;99.90;;;;;;4931311;29;20015;-53
2023/10/08 04:21:28;;;;;;;6.25;1.48;;;10.60;99.90;;;;;;4927448;28;20472;-52
2023/10/08 04:23:57;;;;;;;1.83;1.10;;;10.60;99.90;;;;;;4928511;28;20048;-55
2023/10/08 04:26:23;;;;;;;4.90;1.73;;;10.60;99.90;;;;;;4931300;29;20522;-55
2023/10/08 04:29:02;;;;;;;4.45;1.48;;;10.60;99.90;;;;;;4923273;29;20032;-53
2023/10/08 04:31:38;;;;;;;3.03;1.50;;;10.60;99.90;;;;;;4929095;28;20032;-55
2023/10/08 04:34:17;;;;;;;5.03;1.52;;;10.50;99.90;;;;;;4931123;29;20135;-54
2023/10/08 04:36:45;;;;;;;5.13;1.58;;;10.50;99.90;;;;;;4930957;29;20697;-55
2023/10/08 04:39:15;;;;;;;3.85;1.52;;;10.30;99.90;;;;;;4927112;29;20036;-52
2023/10/08 04:41:45;;;;;;;4.47;1.83;;;10.30;99.90;;;;;;4925938;29;20046;-50
2023/10/08 04:44:15;;;;;;;4.70;1.73;;;10.10;99.90;;;;;;4930614;29;20038;-51
2023/10/08 04:46:47;;;;;;;4.40;1.55;;;10.00;99.90;;;;;;4925530;29;20055;-49
2023/10/08 04:49:28;;;;;;;5.95;1.27;;;9.90;99.90;;;;;;4920987;29;20035;-51
2023/10/08 04:51:58;;;;;;;9.95;1.92;;;9.80;99.90;;;;;;4923578;29;20074;-55
2023/10/08 04:54:29;;;;;;;3.72;1.20;;;9.70;99.90;;;;;;4932643;29;20055;-53
2023/10/08 04:56:59;;;;;;;2.05;1.30;;;9.60;99.90;;;;;;4928126;29;20454;-55
2023/10/08 04:59:32;;;;;;;6.05;1.38;;;9.50;99.90;;;;;;4920685;29;20475;-51
2023/10/08 05:02:13;;;;;;;4.30;1.48;;;9.40;99.90;;;;;;4923499;29;20039;-51
2023/10/08 05:07:20;;;;;;;3.63;1.23;;;9.30;99.90;;;;;;4928733;29;20039;-54
2023/10/08 05:10:10;;;;;;;5.20;1.50;;;9.20;99.90;;;;;;4923099;28;20035;-54
2023/10/08 05:13:14;;;;;;;5.55;0.98;;;9.10;99.90;;;;;;4925024;29;20032;-51
2023/10/08 05:15:41;;;;;;;3.83;1.55;;;9.00;99.90;;;;;;4925084;28;20031;-53
2023/10/08 05:18:23;;;;;;;4.22;1.52;;;8.90;99.90;;;;;;4928294;28;20563;-55
2023/10/08 05:29:00;;;;;;;3.17;1.45;;;8.60;99.90;;;;;;4919416;29;20087;-50
2023/10/08 05:31:46;;;;;;;4.22;1.55;;;8.60;99.90;;;;;;4926398;29;20458;-49
2023/10/08 05:34:32;;;;;;;2.90;1.27;;;8.60;99.90;;;;;;4924966;29;20087;-52
2023/10/08 05:39:40;;;;;;;3.45;1.20;;;8.50;99.90;;;;;;4922735;29;20068;-49
2023/10/08 05:53:15;;;;;;;5.65;1.80;;;8.60;99.90;;;;;;4877396;29;20061;-54
2023/10/08 05:55:47;;;;;;;5.97;1.88;;;8.70;99.90;;;;;;4914155;29;20122;-54
2023/10/08 05:58:13;;;;;;;4.43;1.60;;;8.70;99.90;;;;;;4926864;29;20802;-54
2023/10/08 06:08:49;;;;;;;2.30;1.70;;;9.70;99.90;;;;;;4923173;29;20504;-52
2023/10/08 06:11:41;;;;;;;2.65;1.35;;;10.20;99.90;;;;;;4927182;28;20051;-52
2023/10/08 06:14:36;;;;;;;2.53;1.20;;;10.90;99.90;;;;;;4922824;29;20032;-52
2023/10/08 06:17:13;;;;;;;1.30;1.20;;;11.70;99.90;;;;;;4927449;29;20074;-54
2023/10/08 06:19:44;;;;;;;1.67;1.00;;;12.20;99.90;;;;;;4921099;28;20035;-52
2023/10/08 06:22:09;;;;;;;2.75;1.23;;;12.80;99.90;;;;;;4926218;29;20103;-52
2023/10/08 06:24:38;;;;;;;2.22;1.02;;;13.10;99.90;;;;;;4930356;29;20032;-54
2023/10/08 06:27:04;;;;;;;2.85;1.38;;;13.00;99.90;;;;;;4927414;29;20023;-55
2023/10/08 06:29:31;;;;;;;2.05;1.50;;;12.70;99.90;;;;;;4928629;29;20035;-54
2023/10/08 06:32:01;;;;;;;3.20;1.50;;;12.40;99.90;;;;;;4922444;28;20032;-55
2023/10/08 06:34:27;;;;;;;4.78;1.88;;;12.10;99.90;;;;;;4930889;28;20520;-53
2023/10/08 06:36:55;;;;;;;1.80;1.25;;;12.40;99.90;;;;;;4929068;29;20102;-55
2023/10/08 06:39:25;;;;;;;4.13;1.50;;;13.00;99.90;;;;;;4928931;29;20031;-52
2023/10/08 06:41:53;;;;;;;2.28;1.38;;;13.60;99.90;;;;;;4932952;29;20030;-52
2023/10/08 06:44:19;;;;;;;2.40;1.80;;;14.00;99.90;;;;;;4933415;28;20028;-55
2023/10/08 06:46:45;;;;;;;3.33;1.45;;;14.50;99.90;;;;;;4928564;29;20099;-54
2023/10/08 06:49:13;;;;;;;1.67;1.05;;;14.90;99.90;;;;;;4927817;28;20023;-56
2023/10/08 06:51:41;;;;;;;4.30;1.50;;;15.40;99.90;;;;;;4933726;28;20360;-56
2023/10/08 06:54:10;;;;;;;3.25;1.40;;;15.70;99.90;;;;;;4928225;28;20444;-56
2023/10/08 06:56:36;;;;;;;3.28;1.58;;;15.80;99.90;;;;;;4932324;28;20016;-53
2023/10/08 06:59:03;;;;;;;2.15;1.20;;;16.00;99.90;;;;;;4930752;29;20050;-54
2023/10/08 07:01:38;;;;;;;3.10;1.67;;;15.90;99.90;;;;;;4930684;28;20078;-54
2023/10/08 07:04:06;;;;;;;1.77;1.33;;;16.20;99.90;;;;;;4929125;28;20035;-54
2023/10/08 07:06:37;;;;;;;2.92;1.08;;;16.60;99.90;;;;;;4932351;29;20032;-54
2023/10/08 07:09:06;;;;;;;1.85;1.20;;;16.90;99.90;;;;;;4929766;29;20032;-54
2023/10/08 07:11:34;;;;;;;1.75;1.08;;;17.20;99.90;;;;;;4929945;28;20038;-56
2023/10/08 07:14:01;;;;;;;3.50;0.95;;;17.20;98.20;;;;;;4928657;28;20092;-54
2023/10/08 07:16:28;;;;;;;5.05;1.45;;;17.30;92.90;;;;;;4929609;29;20039;-57
2023/10/08 07:18:55;;;;;;;3.22;1.48;;;16.90;89.00;;;;;;4930802;28;20031;-55
2023/10/08 07:21:28;;;;;;;2.05;1.05;;;17.00;94.30;;;;;;4931985;29;20436;-56
2023/10/08 07:23:59;;;;;;;2.53;1.20;;;17.10;95.30;;;;;;4927799;29;20053;-57
2023/10/08 07:26:37;;;;;;;2.20;1.48;;;17.10;95.50;;;;;;4930575;28;20035;-57
2023/10/08 07:29:11;;;;;;;4.55;1.38;;;17.10;90.80;;;;;;4932095;29;20495;-57
2023/10/08 07:32:09;;;;;;;2.85;1.23;;;17.20;90.90;;;;;;4930594;28;20019;-56
2023/10/08 07:36:50;;;;;;;3.08;1.50;;;17.30;87.60;;;;;;4930968;29;20487;-57
2023/10/08 07:41:53;;;;;;;2.20;1.88;;;17.60;91.20;;;;;;4929948;29;20698;-56
2023/10/08 07:44:21;;;;;;;5.20;1.50;;;17.80;90.80;;;;;;4925727;29;20031;-56
2023/10/08 07:46:49;;;;;;;1.85;1.13;;;17.90;81.30;;;;;;4931108;28;20027;-57
2023/10/08 07:49:14;;;;;;;2.20;1.10;;;17.70;85.00;;;;;;4925155;29;20043;-55
2023/10/08 07:51:40;;;;;;;2.38;0.88;;;17.60;84.70;;;;;;4926021;29;20050;-53
2023/10/08 07:54:09;;;;;;;2.03;0.90;;;17.50;85.20;;;;;;4929095;28;20028;-57
2023/10/08 07:56:37;;;;;;;2.85;1.17;;;17.40;82.60;;;;;;4932143;28;20110;-66
2023/10/08 07:59:08;;;;;;;2.17;0.80;;;17.50;87.70;;;;;;4931295;29;20569;-66
2023/10/08 08:01:34;;;;;;;3.95;1.30;;;17.60;89.30;;;;;;4928082;29;20071;-64
2023/10/08 08:04:00;;;;;;;3.90;1.42;;;17.90;88.70;;;;;;4930964;28;20039;-65
2023/10/08 08:06:25;;;;;;;1.58;0.93;;;17.70;81.90;;;;;;4932698;29;20344;-64
2023/10/08 08:08:51;;;;;;;1.55;1.10;;;17.80;84.60;;;;;;4927486;28;20565;-65
2023/10/08 08:11:17;;;;;;;2.03;1.17;;;17.60;81.40;;;;;;4927126;29;20954;-65
2023/10/08 08:13:44;;;;;;;3.42;1.45;;;17.70;84.60;;;;;;4922406;29;20024;-65
2023/10/08 08:16:16;;;;;;;2.60;0.80;;;17.90;82.50;;;;;;4927595;29;20035;-65
2023/10/08 08:18:49;;;;;;;1.85;1.13;;;18.10;83.60;;;;;;4923895;28;20496;-65
2023/10/08 08:21:16;;;;;;;2.20;1.30;;;18.20;82.90;;;;;;4923168;29;20035;-65
2023/10/08 08:23:49;;;;;;;1.48;1.00;;;18.30;84.10;;;;;;4922943;29;20043;-65
2023/10/08 08:26:26;;;;;;;3.33;1.40;;;18.50;85.00;;;;;;4923084;29;20604;-65
2023/10/08 08:29:02;;;;;;;2.95;1.20;;;18.30;64.80;;;;;;4922947;29;20016;-65
2023/10/08 08:31:32;;;;;;;1.40;0.90;;;17.80;66.60;;;;;;4917804;29;20023;-65
2023/10/08 08:34:02;;;;;;;2.20;1.02;;;17.60;66.90;;;;;;4922331;29;20729;-64
2023/10/08 08:36:37;;;;;;;1.55;0.70;;;17.60;72.30;;;;;;4924617;29;23564;-64
2023/10/08 08:39:04;;;;;;;2.08;0.90;;;17.70;68.50;;;;;;4931410;29;20103;-66
2023/10/08 08:41:30;;;;;;;2.75;1.00;;;17.70;74.20;;;;;;4928566;29;20035;-65
2023/10/08 08:43:58;;;;;;;1.48;0.70;;;17.90;74.00;;;;;;4926550;29;20514;-64
2023/10/08 08:46:37;;;;;;;1.00;0.80;;;18.10;68.20;;;;;;4929291;28;20031;-58
2023/10/08 08:49:07;;;;;;;1.13;0.70;;;18.00;58.00;;;;;;4921457;29;20055;-54
2023/10/08 08:51:34;;;;;;;2.47;0.90;;;18.10;64.20;;;;;;4930242;29;20023;-54
2023/10/08 08:54:06;;;;;;;1.42;0.73;;;18.00;65.30;;;;;;4928725;28;20036;-52
2023/10/08 08:56:33;;;;;;;1.55;0.68;;;18.10;64.90;;;;;;4925809;28;20031;-56
2023/10/08 08:59:01;;;;;;;1.98;1.02;;;18.10;64.10;;;;;;4929038;29;20062;-53
2023/10/08 09:01:27;;;;;;;1.45;0.88;;;17.80;57.80;;;;;;4926947;29;20030;-51
2023/10/08 09:04:07;;;;;;;3.30;0.90;;;17.70;64.60;;;;;;4927335;28;20051;-55
2023/10/08 09:06:34;;;;;;;1.13;0.77;;;17.90;61.80;;;;;;4928806;29;20157;-55
2023/10/08 09:11:45;;;;;;;1.77;0.90;;;18.40;62.80;;;;;;4928704;28;20507;-52
2023/10/08 09:14:10;;;;;;;1.33;0.75;;;18.40;59.80;;;;;;4927873;29;20043;-53
2023/10/08 09:16:36;;;;;;;1.35;0.82;;;18.20;58.10;;;;;;4925650;29;20611;-54
2023/10/08 09:19:02;;;;;;;0.82;0.43;;;18.40;56.80;;;;;;4928807;29;20073;-56
2023/10/08 09:21:30;;;;;;;0.95;0.60;;;18.20;56.50;;;;;;4926297;29;20055;-55
2023/10/08 09:23:55;;;;;;;0.50;0.45;;;18.30;57.60;;;;;;4925402;28;20107;-53
2023/10/08 09:26:25;;;;;;;2.17;0.50;;;18.30;56.50;;;;;;4928742;29;20023;-55
2023/10/08 09:28:51;;;;;;;1.25;0.60;;;18.30;54.60;;;;;;4922842;29;20061;-54
2023/10/08 09:31:17;;;;;;;0.50;0.50;;;18.20;55.70;;;;;;4925150;29;20432;-54
2023/10/08 09:33:53;;;;;;;0.63;0.52;;;18.10;54.80;;;;;;4925130;29;20024;-53
2023/10/08 09:36:19;;;;;;;0.77;0.50;;;18.20;56.60;;;;;;4922007;28;20031;-55
2023/10/08 09:38:48;;;;;;;0.80;0.63;;;18.20;57.00;;;;;;4925667;28;20032;-56
2023/10/08 09:41:14;;;;;;;0.90;0.50;;;18.20;56.50;;;;;;4928828;29;20032;-56
2023/10/08 09:43:41;;;;;;;1.20;0.40;;;18.00;56.90;;;;;;4927107;29;20034;-55
2023/10/08 09:46:18;;;;;;;0.50;0.50;;;18.00;57.30;;;;;;4926244;28;20028;-55
2023/10/08 09:48:55;;;;;;;1.05;0.50;;;18.00;56.20;;;;;;4917969;29;20026;-53
2023/10/08 09:51:20;;;;;;;1.55;0.60;;;18.00;54.50;;;;;;4921237;29;20024;-55
2023/10/08 09:54:14;;;;;;;1.17;0.43;;;17.80;52.30;;;;;;4924851;29;20036;-56
2023/10/08 09:56:40;;;;;;;2.03;0.52;;;17.40;49.00;;;;;;4922336;29;20237;-54
2023/10/08 09:59:09;;;;;;;3.03;0.75;;;17.30;51.70;;;;;;4927517;29;20035;-54
2023/10/08 10:01:37;;;;;;;0.88;0.50;;;17.10;51.70;;;;;;4925637;29;20032;-55
2023/10/08 10:04:06;;;;;;;0.95;0.60;;;17.00;50.20;;;;;;4927422;28;20032;-54
2023/10/08 10:06:32;;;;;;;2.33;0.73;;;16.80;48.90;;;;;;4930566;29;20024;-56
2023/10/08 10:09:00;;;;;;;1.13;0.70;;;16.70;50.60;;;;;;4926928;29;20375;-56
2023/10/08 10:11:27;;;;;;;0.60;0.55;;;16.70;49.90;;;;;;4923030;29;20024;-55
2023/10/08 10:13:59;;;;;;;0.68;0.40;;;16.70;50.30;;;;;;4927941;28;20027;-55
2023/10/08 10:16:26;;;;;;;0.88;0.50;;;16.70;50.00;;;;;;4919192;29;20019;-56
2023/10/08 10:18:59;;;;;;;1.85;0.50;;;16.70;50.70;;;;;;4922466;29;20127;-55
2023/10/08 10:21:32;;;;;;;1.38;0.65;;;16.60;50.30;;;;;;4921742;29;20086;-55
2023/10/08 10:23:58;;;;;;;1.95;0.77;;;16.50;49.60;;;;;;4931030;29;20508;-56
2023/10/08 10:26:30;;;;;;;0.98;0.70;;;16.40;50.20;;;;;;4924687;29;20115;-55
2023/10/08 10:29:14;;;;;;;1.08;0.50;;;16.20;50.00;;;;;;4927206;29;20027;-55
2023/10/08 10:31:46;;;;;;;1.20;0.68;;;16.20;49.40;;;;;;4926984;29;20107;-55
2023/10/08 10:34:13;;;;;;;2.53;0.40;;;16.10;47.60;;;;;;4928975;28;20091;-56
2023/10/08 10:36:41;;;;;;;0.93;0.40;;;15.90;48.10;;;;;;4930355;29;20019;-56
2023/10/08 10:39:15;;;;;;;0.88;0.60;;;15.80;48.50;;;;;;4926118;29;20087;-56
2023/10/08 10:41:44;;;;;;;1.65;0.47;;;15.80;46.60;;;;;;4925866;29;20174;-55
2023/10/08 10:44:10;;;;;;;1.17;0.60;;;15.70;46.70;;;;;;4925567;29;20046;-56
2023/10/08 10:46:41;;;;;;;0.73;0.50;;;15.60;47.60;;;;;;4928164;29;20648;-57
2023/10/08 10:49:21;;;;;;;3.53;1.35;;;15.60;45.90;;;;;;4920325;29;20024;-55
2023/10/08 10:51:48;;;;;;;3.78;0.93;;;15.30;42.90;;;;;;4930670;28;20102;-54
2023/10/08 10:54:23;;;;;;;2.35;0.80;;;15.00;46.00;;;;;;4926737;29;20024;-56
2023/10/08 10:57:03;;;;;;;1.25;0.60;;;15.00;47.90;;;;;;4923078;29;20103;-54
2023/10/08 10:59:36;;;;;;;0.70;0.52;;;15.10;48.30;;;;;;4927369;29;20445;-57
2023/10/08 11:02:08;;;;;;;0.55;0.45;;;15.20;47.90;;;;;;4928398;29;20030;-56
2023/10/08 11:04:47;;;;;;;1.63;1.05;;;15.20;47.80;;;;;;4931054;28;20023;-57
2023/10/08 11:07:15;;;;;;;18.23;6.40;;;15.20;47.50;;;;;;4924437;29;20483;-56
2023/10/08 11:09:44;;;;;;;18.52;8.77;;;15.20;47.90;;;;;;4923017;29;20023;-57
2023/10/08 11:12:13;;;;;;;13.90;7.32;;;15.30;46.70;;;;;;4928530;29;20031;-57
2023/10/08 11:14:42;;;;;;;17.25;8.77;;;15.20;42.70;;;;;;4926626;29;20077;-55
2023/10/08 11:17:22;;;;;;;16.95;8.15;;;15.10;44.30;;;;;;4925599;29;20036;-56
2023/10/08 11:19:48;;;;;;;40.28;20.17;;;15.10;46.50;;;;;;4930932;28;20079;-56
2023/10/08 11:22:18;;;;;;;21.65;9.85;;;15.20;45.60;;;;;;4930459;28;20791;-56
2023/10/08 11:24:47;;;;;;;11.70;7.10;;;15.20;45.40;;;;;;4925463;29;20078;-56
2023/10/08 11:27:16;;;;;;;9.18;4.68;;;15.30;45.40;;;;;;4926894;28;20527;-55
2023/10/08 11:29:47;;;;;;;4.05;2.45;;;15.50;45.20;;;;;;4930494;29;20050;-56
2023/10/08 11:32:17;;;;;;;3.17;1.67;;;15.50;42.80;;;;;;4929254;29;20598;-56
2023/10/08 11:34:49;;;;;;;2.65;1.65;;;15.50;43.70;;;;;;4927008;28;20054;-56
2023/10/08 11:37:26;;;;;;;2.33;1.70;;;15.60;44.00;;;;;;4931102;29;20387;-56
2023/10/08 11:39:53;;;;;;;3.72;1.48;;;15.70;43.50;;;;;;4930825;29;20135;-56
2023/10/08 11:44:59;;;;;;;1.33;0.70;;;16.00;41.80;;;;;;4923469;29;20768;-56
2023/10/08 11:47:31;;;;;;;1.73;0.75;;;16.10;40.80;;;;;;4929507;28;20027;-60
2023/10/08 11:50:09;;;;;;;0.93;0.50;;;16.10;42.10;;;;;;4924313;28;20047;-60
2023/10/08 11:52:41;;;;;;;0.70;0.52;;;16.20;43.00;;;;;;4918999;29;20116;-60
2023/10/08 11:55:18;;;;;;;1.40;0.55;;;16.30;43.10;;;;;;4925363;29;20035;-60
2023/10/08 11:57:48;;;;;;;1.88;0.88;;;16.30;42.00;;;;;;4926710;28;20039;-61
2023/10/08 12:00:24;;;;;;;0.60;0.60;;;16.40;42.70;;;;;;4921968;29;20031;-60
2023/10/08 12:02:54;;;;;;;;;;;16.60;41.50;;;;;;4927152;29;20027;-60
2023/10/08 12:05:20;;;;;;;1.23;0.57;;;16.70;35.70;;;;;;4925443;28;19915;-60
2023/10/08 12:07:52;;;;;;;1.55;0.65;;;16.60;37.90;;;;;;4925659;29;20050;-60
2023/10/08 12:10:22;;;;;;;8.65;0.85;;;16.60;38.10;;;;;;4925664;28;20107;-61
2023/10/08 12:12:59;;;;;;;1.25;0.63;;;16.60;38.50;;;;;;4927620;28;20039;-60
2023/10/08 12:15:26;;;;;;;0.80;0.60;;;16.60;37.70;;;;;;4926039;29;20016;-61
2023/10/08 12:20:37;;;;;;;1.50;0.60;;;16.30;36.80;;;;;;4921321;29;20046;-60
2023/10/08 12:23:04;;;;;;;0.95;0.45;;;16.20;38.20;;;;;;4923728;28;20043;-61
2023/10/08 12:25:32;;;;;;;0.90;0.50;;;16.40;39.30;;;;;;4927536;29;20168;-61
2023/10/08 12:27:58;;;;;;;0.43;0.32;;;16.60;39.30;;;;;;4921106;29;20662;-60
2023/10/08 12:30:30;;;;;;;2.20;0.70;;;16.80;39.00;;;;;;4923889;28;20662;-60
2023/10/08 12:32:59;;;;;;;2.35;0.80;;;16.90;38.40;;;;;;4927136;28;20016;-60
2023/10/08 12:35:26;;;;;;;1.60;0.85;;;16.60;33.20;;;;;;4923691;29;20024;-61
2023/10/08 12:37:52;;;;;;;1.77;0.70;;;16.20;33.10;;;;;;4919329;29;20107;-61
2023/10/08 12:40:23;;;;;;;1.63;0.80;;;15.90;33.80;;;;;;4919363;29;20035;-60
2023/10/08 12:42:52;;;;;;;1.83;0.68;;;15.80;35.90;;;;;;4915361;29;20974;-61
2023/10/08 12:45:21;;;;;;;3.00;0.70;;;15.90;36.20;;;;;;4918312;29;20135;-60
2023/10/08 12:47:51;;;;;;;1.45;0.52;;;15.90;35.90;;;;;;4920676;29;20055;-61
2023/10/08 12:50:28;;;;;;;1.63;0.70;;;16.00;36.80;;;;;;4929154;29;20034;-60
2023/10/08 12:52:55;;;;;;;1.38;0.90;;;16.20;37.20;;;;;;4924953;29;20028;-59
2023/10/08 12:55:24;;;;;;;1.98;0.45;;;16.30;37.50;;;;;;4923448;29;20774;-60
2023/10/08 12:57:55;;;;;;;1.02;0.45;;;16.30;36.30;;;;;;4926381;29;20031;-60
2023/10/08 13:00:24;;;;;;;1.52;0.60;;;16.20;37.00;;;;;;4925173;28;20590;-60
2023/10/08 13:02:53;;;;;;;1.00;0.68;;;16.10;37.30;;;;;;4923207;29;20036;-59
2023/10/08 13:05:27;;;;;;;1.52;0.50;;;15.90;36.80;;;;;;4923111;28;20023;-60
2023/10/08 13:07:57;;;;;;;1.70;0.65;;;15.70;35.50;;;;;;4923972;29;20028;-60
2023/10/08 13:10:23;;;;;;;1.00;0.52;;;15.50;36.60;;;;;;4927920;28;20032;-61
2023/10/08 13:12:49;;;;;;;0.90;0.60;;;15.40;37.70;;;;;;4924585;29;20031;-60
2023/10/08 13:15:14;;;;;;;2.13;0.52;;;15.30;37.70;;;;;;4925824;29;20039;-61
2023/10/08 13:17:45;;;;;;;1.88;0.70;;;15.20;38.80;;;;;;4924116;29;20028;-61
2023/10/08 13:20:14;;;;;;;1.08;0.73;;;15.20;39.50;;;;;;4926700;29;20038;-61
2023/10/08 13:22:40;;;;;;;1.02;0.55;;;15.30;39.90;;;;;;4921436;29;20050;-60
2023/10/08 13:25:06;;;;;;;1.20;0.60;;;15.40;40.30;;;;;;4920171;28;20483;-61
2023/10/08 13:27:32;;;;;;;0.60;0.40;;;15.50;40.30;;;;;;4922791;29;20019;-61
2023/10/08 13:29:58;;;;;;;0.60;0.50;;;15.40;40.20;;;;;;4923855;29;20618;-60
2023/10/08 13:32:24;;;;;;;0.47;0.47;;;15.40;40.70;;;;;;4924094;29;20038;-60
2023/10/08 13:34:50;;;;;;;0.93;0.50;;;15.40;40.40;;;;;;4930743;28;20028;-61
2023/10/08 13:37:15;;;;;;;1.63;0.60;;;15.40;40.60;;;;;;4926848;29;20031;-60
2023/10/08 13:39:41;;;;;;;2.30;0.60;;;15.20;40.20;;;;;;4918121;29;20043;-60
2023/10/08 13:42:07;;;;;;;1.00;0.47;;;15.00;40.20;;;;;;4918914;29;20046;-60
2023/10/08 13:44:34;;;;;;;1.50;0.73;;;14.90;40.80;;;;;;4925551;28;20407;-60
2023/10/08 13:47:05;;;;;;;0.90;0.50;;;14.90;41.00;;;;;;4924400;28;20023;-59
2023/10/08 13:49:31;;;;;;;0.95;0.57;;;15.00;40.70;;;;;;4926463;29;20511;-60
2023/10/08 13:51:57;;;;;;;0.60;0.57;;;15.00;40.70;;;;;;4928388;28;20495;-60
2023/10/08 13:54:28;;;;;;;0.47;0.40;;;15.10;40.60;;;;;;4928330;28;20035;-60
2023/10/08 13:56:54;;;;;;;1.00;0.47;;;15.00;40.60;;;;;;4928507;29;20027;-60